Time;durP1;ratioP1;P1;durP2;ratioP2;P2;SDS_P1;SDS_P2;PMS_P1;PMS_P2;Temp;Humidity;BMP_temperature;BMP_pressure;BME280_temperature;BME280_humidity;BME280_pressure;Samples;Min_cycle;Max_cycle;Signal;HPM_P1;HPM_P2
2022/05/24 00:00:26;;;;;;;365.08;195.75;;;;;;;18.36;66.50;99223.88;338648;29;1295;-80
2022/05/24 00:00:37;;;;;;;352.17;192.27;;;;;;;18.35;66.29;99220.38;340454;29;935;-80
2022/05/24 00:00:48;;;;;;;354.20;194.07;;;;;;;18.38;66.42;99222.78;338220;29;1390;-80
2022/05/24 00:00:59;;;;;;;350.85;189.98;;;;;;;18.35;66.33;99214.25;339573;29;1505;-80
2022/05/24 00:01:09;;;;;;;350.23;188.50;;;;;;;18.42;66.15;99220.75;339282;29;1461;-80
2022/05/24 00:01:19;;;;;;;349.88;188.18;;;;;;;18.39;66.02;99221.00;340038;29;1372;-80
2022/05/24 00:01:30;;;;;;;354.80;190.80;;;;;;;18.38;66.26;99216.66;338000;29;1206;-80
2022/05/24 00:01:41;;;;;;;359.17;193.00;;;;;;;18.39;66.01;99223.63;337645;29;1545;-80
2022/05/24 00:01:52;;;;;;;361.92;193.15;;;;;;;18.39;66.21;99226.28;339144;29;1540;-80
2022/05/24 00:02:03;;;;;;;359.37;189.77;;;;;;;18.33;66.20;99214.38;338038;29;1223;-82
2022/05/24 00:02:14;;;;;;;360.52;188.90;;;;;;;18.29;66.29;99221.72;339889;29;1453;-82
2022/05/24 00:02:24;;;;;;;361.17;191.00;;;;;;;18.26;66.57;99224.59;337404;29;1333;-82
2022/05/24 00:02:34;;;;;;;366.80;196.30;;;;;;;18.23;66.75;99224.84;337369;29;1235;-81
2022/05/24 00:02:45;;;;;;;365.43;195.77;;;;;;;18.24;66.56;99221.22;338166;29;868;-81
2022/05/24 00:02:56;;;;;;;364.00;196.35;;;;;;;18.23;66.36;99224.84;339373;29;803;-80
2022/05/24 00:03:06;;;;;;;360.95;195.80;;;;;;;18.24;66.66;99220.38;340448;29;1230;-80
2022/05/24 00:03:19;;;;;;;361.73;196.10;;;;;;;18.25;66.67;99228.22;340164;29;1425;-81
2022/05/24 00:03:30;;;;;;;360.98;197.75;;;;;;;18.26;66.57;99224.59;337734;29;1546;-81
2022/05/24 00:03:40;;;;;;;357.88;193.43;;;;;;;18.27;66.79;99231.59;339956;29;1335;-80
2022/05/24 00:03:51;;;;;;;356.93;189.20;;;;;;;18.25;66.69;99222.06;339107;29;1287;-80
2022/05/24 00:04:01;;;;;;;361.05;188.32;;;;;;;18.23;66.56;99224.84;338182;29;1501;-80
2022/05/24 00:04:12;;;;;;;360.27;190.07;;;;;;;18.28;66.63;99227.13;340797;29;1594;-81
2022/05/24 00:04:22;;;;;;;356.83;191.87;;;;;;;18.18;66.42;99221.75;340869;28;1170;-81
2022/05/24 00:04:33;;;;;;;356.75;192.05;;;;;;;18.19;66.53;99228.72;340590;29;1146;-81
2022/05/24 00:04:43;;;;;;;358.83;190.73;;;;;;;18.08;66.60;99226.06;338417;29;1524;-81
2022/05/24 00:04:54;;;;;;;362.05;190.70;;;;;;;18.05;66.95;99225.47;336023;29;1190;-81
2022/05/24 00:05:05;;;;;;;361.37;191.30;;;;;;;18.02;67.17;99220.41;339750;29;1605;-81
2022/05/24 00:05:15;;;;;;;359.40;193.40;;;;;;;18.02;67.10;99223.88;342032;28;1230;-81
2022/05/24 00:05:27;;;;;;;357.67;191.00;;;;;;;18.05;67.10;99217.50;339969;29;932;-81
2022/05/24 00:05:37;;;;;;;356.83;189.23;;;;;;;18.05;67.37;99225.47;339408;29;1417;-81
2022/05/24 00:05:48;;;;;;;356.60;191.75;;;;;;;18.08;67.42;99226.06;341290;29;1465;-82
2022/05/24 00:05:59;;;;;;;358.17;194.50;;;;;;;18.08;66.99;99218.13;338130;29;1478;-81
2022/05/24 00:06:09;;;;;;;362.40;197.10;;;;;;;18.10;67.28;99224.13;338552;29;1248;-81
2022/05/24 00:06:19;;;;;;;362.60;194.77;;;;;;;18.07;67.30;99221.72;338894;29;1234;-81
2022/05/24 00:06:31;;;;;;;361.73;193.77;;;;;;;18.01;67.33;99230.16;339625;29;1364;-81
2022/05/24 00:06:41;;;;;;;359.20;191.32;;;;;;;18.03;67.31;99228.22;340140;29;1306;-81
2022/05/24 00:06:51;;;;;;;358.15;193.60;;;;;;;18.05;67.47;99228.94;337657;29;1529;-81
2022/05/24 00:07:02;;;;;;;360.03;194.27;;;;;;;18.04;67.27;99214.03;340634;29;1247;-81
2022/05/24 00:07:12;;;;;;;359.15;194.73;;;;;;;18.09;67.41;99232.19;340339;29;1640;-80
2022/05/24 00:07:23;;;;;;;361.50;195.10;;;;;;;18.07;67.31;99218.22;338819;29;1309;-81
2022/05/24 00:07:34;;;;;;;359.33;195.57;;;;;;;18.11;66.99;99222.34;341027;29;1231;-81
2022/05/24 00:07:44;;;;;;;358.23;196.10;;;;;;;18.12;66.99;99230.16;339591;29;1304;-81
2022/05/24 00:07:55;;;;;;;360.07;197.60;;;;;;;18.13;67.19;99223.91;336220;29;890;-80
2022/05/24 00:08:05;;;;;;;359.55;195.68;;;;;;;18.13;67.07;99218.59;341044;29;2410;-80
2022/05/24 00:08:16;;;;;;;356.23;193.68;;;;;;;18.16;67.22;99221.00;341816;29;1190;-80
2022/05/24 00:08:26;;;;;;;354.63;193.20;;;;;;;18.21;66.91;99232.06;336567;29;1419;-80
2022/05/24 00:08:37;;;;;;;355.38;193.80;;;;;;;18.16;66.91;99213.06;340189;29;1262;-80
2022/05/24 00:08:47;;;;;;;357.93;196.00;;;;;;;18.22;66.91;99223.16;339182;29;1274;-80
2022/05/24 00:08:58;;;;;;;358.40;197.47;;;;;;;18.26;66.83;99224.59;338414;29;1397;-80
2022/05/24 00:09:08;;;;;;;358.67;196.07;;;;;;;18.29;66.82;99220.88;338118;29;1240;-80
2022/05/24 00:09:19;;;;;;;356.63;193.88;;;;;;;18.26;66.71;99216.66;338546;29;1426;-81
2022/05/24 00:09:29;;;;;;;357.93;194.17;;;;;;;18.28;66.73;99222.66;338652;29;1466;-81
2022/05/24 00:09:40;;;;;;;361.65;195.10;;;;;;;18.25;66.74;99214.97;340900;29;1191;-81
2022/05/24 00:09:50;;;;;;;365.60;196.47;;;;;;;18.31;66.82;99218.09;340386;29;1084;-80
2022/05/24 00:10:01;;;;;;;364.67;194.77;;;;;;;18.33;66.71;99224.13;340325;29;1607;-80
2022/05/24 00:10:14;;;;;;;362.23;194.90;;;;;;;18.31;66.48;99220.75;338848;29;1465;-81
2022/05/24 00:10:27;;;;;;;361.42;193.48;;;;;;;18.34;66.61;99218.69;338808;29;1499;-81
2022/05/24 00:10:38;;;;;;;361.75;191.73;;;;;;;18.32;66.37;99215.31;338976;29;1298;-81
2022/05/24 00:10:48;;;;;;;364.90;193.60;;;;;;;18.32;66.53;99215.31;341526;29;1425;-81
2022/05/24 00:10:59;;;;;;;368.88;195.18;;;;;;;18.33;66.56;99218.81;339331;29;1377;-81
2022/05/24 00:11:09;;;;;;;366.10;193.00;;;;;;;18.25;66.29;99209.66;338775;29;983;-81
2022/05/24 00:11:19;;;;;;;360.73;189.85;;;;;;;18.24;66.82;99218.56;338573;29;1180;-81
2022/05/24 00:11:30;;;;;;;360.00;190.60;;;;;;;18.22;66.70;99211.72;341594;29;1548;-82
2022/05/24 00:11:40;;;;;;;358.90;194.15;;;;;;;18.24;66.68;99215.94;341978;29;1344;-81
2022/05/24 00:11:51;;;;;;;357.60;194.80;;;;;;;18.24;66.52;99226.53;337810;29;1501;-81
2022/05/24 00:12:02;;;;;;;361.08;197.68;;;;;;;18.22;66.35;99215.22;339436;29;897;-81
2022/05/24 00:12:13;;;;;;;364.95;200.23;;;;;;;18.22;66.65;99215.22;340291;29;1611;-82
2022/05/24 00:12:23;;;;;;;364.45;199.82;;;;;;;18.23;66.56;99224.00;339754;29;1024;-81
2022/05/24 00:12:33;;;;;;;360.90;198.83;;;;;;;18.19;66.55;99220.78;338097;29;1522;-81
2022/05/24 00:12:44;;;;;;;360.83;196.85;;;;;;;18.20;66.66;99219.78;338644;29;1607;-81
2022/05/24 00:12:54;;;;;;;362.33;196.93;;;;;;;18.18;66.65;99219.09;339214;29;1309;-81
2022/05/24 00:13:05;;;;;;;359.23;193.20;;;;;;;18.19;66.85;99219.94;338575;29;1805;-81
2022/05/24 00:13:15;;;;;;;360.30;194.47;;;;;;;18.20;66.88;99225.06;338665;29;1357;-82
2022/05/24 00:13:26;;;;;;;358.83;193.38;;;;;;;18.21;66.41;99226.75;340721;29;1313;-81
2022/05/24 00:13:36;;;;;;;361.43;194.73;;;;;;;18.23;66.78;99224.00;339077;29;1198;-81
2022/05/24 00:13:47;;;;;;;356.05;190.88;;;;;;;18.23;66.75;99224.00;335939;29;1477;-81
2022/05/24 00:13:57;;;;;;;358.47;194.47;;;;;;;18.23;66.72;99214.25;337003;29;1340;-82
2022/05/24 00:14:07;;;;;;;358.53;194.17;;;;;;;18.24;66.20;99221.22;339227;29;953;-82
2022/05/24 00:15:19;;;;;;;359.75;194.45;;;;;;;18.31;66.58;99226.88;339020;29;1637;-82
2022/05/24 00:15:28;;;;;;;346.25;187.15;;;;;;;18.33;66.34;99224.13;339273;29;1497;-81
2022/05/24 00:15:38;;;;;;;347.50;185.30;;;;;;;18.35;66.71;99222.19;337438;29;1467;-82
2022/05/24 00:15:48;;;;;;;348.85;184.35;;;;;;;18.35;66.37;99222.19;340892;29;1505;-82
2022/05/24 00:15:59;;;;;;;349.93;185.17;;;;;;;18.34;66.37;99224.00;340170;29;1516;-82
2022/05/24 00:16:10;;;;;;;348.63;185.70;;;;;;;18.37;66.29;99228.22;338992;29;1257;-82
2022/05/24 00:16:21;;;;;;;351.47;185.43;;;;;;;18.37;66.35;99230.88;339854;29;1575;-82
2022/05/24 00:16:31;;;;;;;351.40;183.63;;;;;;;18.37;66.01;99228.22;338456;29;1516;-82
2022/05/24 00:16:42;;;;;;;354.07;187.07;;;;;;;18.39;66.20;99231.59;337823;29;1634;-82
2022/05/24 00:16:52;;;;;;;354.55;187.02;;;;;;;18.37;66.21;99221.09;338035;29;1333;-82
2022/05/24 00:17:03;;;;;;;355.43;187.30;;;;;;;18.38;66.16;99219.31;339768;29;1485;-82
2022/05/24 00:17:13;;;;;;;355.38;187.27;;;;;;;18.39;66.09;99228.94;339453;29;2175;-82
2022/05/24 00:17:24;;;;;;;354.10;189.10;;;;;;;18.41;66.10;99227.00;339276;29;1208;-82
2022/05/24 00:17:34;;;;;;;351.52;190.63;;;;;;;18.41;65.97;99227.84;339359;29;1226;-81
2022/05/24 00:17:47;;;;;;;351.33;189.60;;;;;;;18.44;66.14;99226.78;339191;29;1285;-82
2022/05/24 00:17:59;;;;;;;351.77;189.85;;;;;;;18.46;65.91;99230.97;337429;29;1210;-82
2022/05/24 00:18:20;;;;;;;352.67;189.55;;;;;;;18.44;65.98;99229.41;337935;29;925;-82
2022/05/24 00:18:30;;;;;;;353.20;189.65;;;;;;;18.39;65.86;99226.28;337773;29;1516;-82
2022/05/24 00:18:41;;;;;;;352.27;187.35;;;;;;;18.35;66.11;99214.25;338032;29;1000;-82
2022/05/24 00:18:52;;;;;;;356.37;187.50;;;;;;;18.40;66.07;99220.03;337319;29;1274;-82
2022/05/24 00:19:02;;;;;;;356.77;188.70;;;;;;;18.44;66.00;99226.78;339149;29;1248;-83
2022/05/24 00:19:13;;;;;;;356.08;188.27;;;;;;;18.37;66.10;99221.09;339037;29;1408;-83
2022/05/24 00:19:23;;;;;;;354.83;189.03;;;;;;;18.39;65.80;99221.00;337173;29;1179;-83
2022/05/24 00:19:34;;;;;;;356.67;190.63;;;;;;;18.42;65.79;99223.41;338898;29;1635;-83
2022/05/24 00:19:44;;;;;;;358.00;192.47;;;;;;;18.43;66.03;99227.72;338424;29;1461;-83
2022/05/24 00:19:54;;;;;;;357.20;190.50;;;;;;;18.42;66.03;99223.41;338791;29;1191;-81
2022/05/24 00:20:05;;;;;;;356.73;188.07;;;;;;;18.46;65.90;99228.34;338909;29;1376;-82
2022/05/24 00:20:16;;;;;;;355.83;187.77;;;;;;;18.48;65.65;99228.22;340073;29;1212;-82
2022/05/24 00:20:30;;;;;;;358.43;189.87;;;;;;;18.49;65.78;99224.59;341882;29;1254;-81
2022/05/24 00:20:43;;;;;;;356.83;189.43;;;;;;;18.48;65.81;99222.91;338905;29;1294;-81
2022/05/24 00:20:55;;;;;;;357.70;189.35;;;;;;;18.50;65.79;99234.22;340426;29;1383;-81
2022/05/24 00:21:06;;;;;;;357.58;187.80;;;;;;;18.48;65.59;99222.91;339901;29;1615;-82
2022/05/24 00:21:16;;;;;;;358.70;189.27;;;;;;;18.44;65.69;99232.91;338487;29;1359;-81
2022/05/24 00:21:27;;;;;;;356.50;188.57;;;;;;;18.39;65.61;99219.19;340215;29;1215;-81
2022/05/24 00:21:37;;;;;;;357.48;190.75;;;;;;;18.40;66.09;99228.81;339954;29;1254;-81
2022/05/24 00:21:48;;;;;;;355.13;188.30;;;;;;;18.40;65.90;99233.28;337460;29;1274;-81
2022/05/24 00:21:58;;;;;;;356.75;189.57;;;;;;;18.42;65.91;99223.41;337575;29;1314;-81
2022/05/24 00:22:09;;;;;;;358.17;189.27;;;;;;;18.44;65.85;99226.78;342776;28;1271;-81
2022/05/24 00:22:19;;;;;;;357.00;191.20;;;;;;;18.45;65.77;99233.75;344551;28;1229;-81
2022/05/24 00:22:29;;;;;;;359.23;192.37;;;;;;;18.43;65.52;99225.94;338813;29;1247;-81
2022/05/24 00:22:40;;;;;;;358.92;192.32;;;;;;;18.47;65.74;99237.97;339583;29;944;-82
2022/05/24 00:22:50;;;;;;;360.40;191.77;;;;;;;18.44;65.63;99221.47;340186;29;1325;-82
2022/05/24 00:23:01;;;;;;;358.67;189.23;;;;;;;18.44;65.62;99226.78;338683;29;1351;-81
2022/05/24 00:23:11;;;;;;;359.42;187.27;;;;;;;18.48;65.78;99226.41;339216;29;1261;-81
2022/05/24 00:23:23;;;;;;;365.52;190.80;;;;;;;18.52;65.75;99229.66;339066;29;1599;-81
2022/05/24 00:23:34;;;;;;;368.67;195.65;;;;;;;18.50;65.62;99234.22;341266;29;1405;-81
2022/05/24 00:23:44;;;;;;;370.27;197.57;;;;;;;18.50;65.49;99236.88;339869;29;2283;-81
2022/05/24 00:23:54;;;;;;;366.13;194.67;;;;;;;18.53;65.69;99236.66;337504;29;1278;-81
2022/05/24 00:24:05;;;;;;;364.60;193.05;;;;;;;18.54;65.66;99233.03;339863;29;1252;-82
2022/05/24 00:24:15;;;;;;;355.30;187.10;;;;;;;18.45;65.54;99233.75;339313;29;1505;-82
2022/05/24 00:24:26;;;;;;;352.80;187.23;;;;;;;18.38;65.53;99228.09;337236;29;1143;-82
2022/05/24 00:24:36;;;;;;;352.77;189.13;;;;;;;18.36;65.72;99230.03;336256;29;1522;-82
2022/05/24 00:24:47;;;;;;;361.03;192.50;;;;;;;18.35;65.79;99232.78;338238;29;1489;-81
2022/05/24 00:25:01;;;;;;;361.83;192.53;;;;;;;18.34;65.89;99231.09;343037;28;1193;-82
2022/05/24 00:25:11;;;;;;;359.15;189.93;;;;;;;18.32;65.80;99230.38;339207;29;1310;-82
2022/05/24 00:25:22;;;;;;;353.20;185.85;;;;;;;18.36;66.01;99235.31;339135;29;1265;-82
2022/05/24 00:25:34;;;;;;;352.80;186.20;;;;;;;18.36;66.13;99229.19;339371;29;1508;-81
2022/05/24 00:25:46;;;;;;;352.38;184.68;;;;;;;18.38;66.32;99232.56;340264;29;1517;-81
2022/05/24 00:25:59;;;;;;;353.23;186.15;;;;;;;18.38;66.16;99227.25;338877;29;1392;-81
2022/05/24 00:26:09;;;;;;;356.02;188.52;;;;;;;18.41;66.32;99234.97;337301;29;871;-81
2022/05/24 00:26:25;;;;;;;357.37;187.97;;;;;;;18.41;65.75;99229.66;337368;29;2096;-81
2022/05/24 00:26:35;;;;;;;358.75;190.75;;;;;;;18.40;65.75;99227.97;338434;29;1318;-81
2022/05/24 00:26:46;;;;;;;363.57;191.93;;;;;;;18.36;65.70;99229.19;338588;29;1449;-82
2022/05/24 00:26:56;;;;;;;367.98;192.45;;;;;;;18.28;65.90;99230.63;335753;29;812;-82
2022/05/24 00:27:07;;;;;;;367.98;190.98;;;;;;;18.25;66.22;99233.50;337098;29;1548;-82
2022/05/24 00:27:17;;;;;;;364.90;188.20;;;;;;;18.24;66.21;99231.81;340637;29;1485;-81
2022/05/24 00:27:28;;;;;;;361.17;187.82;;;;;;;18.21;66.36;99229.41;338901;29;1477;-82
2022/05/24 00:27:39;;;;;;;360.48;186.77;;;;;;;18.17;66.32;99224.50;339150;29;917;-82
2022/05/24 00:27:51;;;;;;;363.30;191.68;;;;;;;18.14;66.49;99230.88;339199;29;1521;-82
2022/05/24 00:28:01;;;;;;;363.63;193.65;;;;;;;18.16;66.46;99221.00;340300;29;1453;-82
2022/05/24 00:28:13;;;;;;;365.80;193.48;;;;;;;18.17;66.63;99220.06;337636;29;1270;-82
2022/05/24 00:28:25;;;;;;;364.73;193.80;;;;;;;18.20;66.43;99230.38;336316;29;1123;-82
2022/05/24 00:28:35;;;;;;;362.35;193.40;;;;;;;18.19;66.54;99228.72;337646;29;1600;-82
2022/05/24 00:28:46;;;;;;;358.98;192.90;;;;;;;18.12;66.72;99222.22;337830;29;1556;-82
2022/05/24 00:28:57;;;;;;;361.17;194.80;;;;;;;17.97;66.97;99223.41;340976;29;1268;-82
2022/05/24 00:29:07;;;;;;;360.42;194.00;;;;;;;18.02;66.91;99231.84;341979;29;1422;-82
2022/05/24 00:29:17;;;;;;;360.27;191.95;;;;;;;18.05;67.02;99233.41;339580;29;1458;-81
2022/05/24 00:29:28;;;;;;;363.93;191.17;;;;;;;18.05;66.87;99221.00;337217;29;1187;-82
2022/05/24 00:29:38;;;;;;;363.45;192.35;;;;;;;18.10;66.67;99229.44;338597;29;1190;-83
2022/05/24 00:29:49;;;;;;;362.40;193.33;;;;;;;18.04;67.03;99224.63;338937;29;1545;-81
2022/05/24 00:29:59;;;;;;;360.43;193.90;;;;;;;18.05;66.24;99220.16;340216;29;1497;-80
2022/05/24 00:30:10;;;;;;;359.58;194.20;;;;;;;18.06;67.02;99221.84;338683;29;1296;-81
2022/05/24 00:30:20;;;;;;;363.67;196.25;;;;;;;18.05;66.66;99226.31;338067;29;1463;-81
2022/05/24 00:30:31;;;;;;;364.47;194.87;;;;;;;18.07;66.64;99221.72;340236;29;1469;-81
2022/05/24 00:30:42;;;;;;;367.35;197.10;;;;;;;18.13;66.44;99223.06;340167;29;1382;-81
2022/05/24 00:30:53;;;;;;;361.27;193.90;;;;;;;18.10;66.56;99221.50;340134;29;1409;-81
2022/05/24 00:31:03;;;;;;;360.77;193.25;;;;;;;18.12;66.64;99227.50;340376;29;1301;-81
2022/05/24 00:31:14;;;;;;;358.00;191.77;;;;;;;18.15;66.68;99227.28;341642;29;1245;-81
2022/05/24 00:31:24;;;;;;;357.13;194.50;;;;;;;18.15;66.22;99221.97;340380;29;1386;-81
2022/05/24 00:31:35;;;;;;;359.67;199.77;;;;;;;18.13;66.62;99223.91;339987;29;1532;-81
2022/05/24 00:31:45;;;;;;;359.67;196.10;;;;;;;18.15;66.44;99227.28;339251;29;1481;-81
2022/05/24 00:31:55;;;;;;;361.43;193.80;;;;;;;18.15;66.43;99224.63;339322;29;993;-81
2022/05/24 00:32:06;;;;;;;359.25;189.05;;;;;;;18.19;66.42;99217.28;341629;29;1445;-81
2022/05/24 00:32:17;;;;;;;362.63;192.27;;;;;;;18.21;66.42;99226.75;339141;29;1557;-81
2022/05/24 00:32:27;;;;;;;364.43;194.30;;;;;;;18.21;66.29;99220.63;341511;29;1202;-81
2022/05/24 00:32:37;;;;;;;365.97;192.50;;;;;;;18.25;66.14;99225.56;337894;29;1337;-81
2022/05/24 00:32:48;;;;;;;363.95;191.25;;;;;;;18.26;66.60;99235.19;338194;29;720;-81
2022/05/24 00:32:58;;;;;;;365.53;191.53;;;;;;;18.25;66.42;99225.56;337312;29;2052;-81
2022/05/24 00:33:09;;;;;;;368.38;191.13;;;;;;;18.28;66.41;99230.63;337921;29;1192;-81
2022/05/24 00:33:21;;;;;;;370.67;192.67;;;;;;;18.31;66.26;99236.66;341500;28;1495;-81
2022/05/24 00:33:33;;;;;;;364.83;191.15;;;;;;;18.33;65.98;99224.13;340031;29;1337;-81
2022/05/24 00:33:44;;;;;;;360.02;190.98;;;;;;;18.32;66.07;99227.72;338611;29;1544;-81
2022/05/24 00:33:54;;;;;;;355.23;189.77;;;;;;;18.34;66.05;99226.66;339166;29;1226;-81
2022/05/24 00:34:04;;;;;;;359.33;191.60;;;;;;;18.33;65.90;99224.97;340641;29;1182;-81
2022/05/24 00:34:15;;;;;;;361.93;194.00;;;;;;;18.34;65.73;99226.66;339134;29;1516;-81
2022/05/24 00:34:25;;;;;;;362.10;193.27;;;;;;;18.33;65.84;99232.06;339581;29;1271;-81
2022/05/24 00:34:36;;;;;;;360.85;191.73;;;;;;;18.31;65.82;99236.66;340825;29;1228;-81
2022/05/24 00:34:46;;;;;;;358.67;188.57;;;;;;;18.31;65.55;99229.53;339416;29;1429;-81
2022/05/24 00:34:56;;;;;;;359.05;188.93;;;;;;;18.25;65.83;99228.22;338772;29;1248;-81
2022/05/24 00:35:07;;;;;;;358.83;190.57;;;;;;;18.25;65.96;99225.56;337419;29;1923;-81
2022/05/24 00:35:18;;;;;;;360.05;194.88;;;;;;;18.29;65.84;99228.81;337746;29;1414;-81
2022/05/24 00:35:28;;;;;;;358.27;194.23;;;;;;;18.26;66.03;99224.59;337347;29;2264;-81
2022/05/24 00:35:39;;;;;;;357.43;194.43;;;;;;;18.29;66.00;99229.66;340686;29;1300;-81
2022/05/24 00:35:50;;;;;;;356.60;193.95;;;;;;;18.33;65.91;99234.72;339186;29;1536;-81
2022/05/24 00:36:00;;;;;;;356.85;194.85;;;;;;;18.32;65.83;99238.31;338007;29;1319;-81
2022/05/24 00:36:10;;;;;;;357.20;193.27;;;;;;;18.34;65.96;99226.66;340631;29;1267;-81
2022/05/24 00:36:21;;;;;;;357.48;189.63;;;;;;;18.37;65.98;99234.34;340363;29;1207;-81
2022/05/24 00:36:31;;;;;;;360.97;193.17;;;;;;;18.33;65.73;99224.97;338436;29;1485;-81
2022/05/24 00:36:42;;;;;;;363.43;195.53;;;;;;;18.35;65.68;99232.78;338232;29;834;-81
2022/05/24 00:36:52;;;;;;;360.30;194.25;;;;;;;18.39;65.52;99234.22;339081;29;1434;-81
2022/05/24 00:37:03;;;;;;;358.57;188.73;;;;;;;18.43;65.69;99235.69;339797;29;1473;-80
2022/05/24 00:37:13;;;;;;;358.60;189.35;;;;;;;18.40;65.57;99220.03;338477;29;1569;-81
2022/05/24 00:37:24;;;;;;;359.25;190.98;;;;;;;18.41;65.64;99225.19;339180;29;1326;-81
2022/05/24 00:37:37;;;;;;;358.47;192.93;;;;;;;18.43;65.66;99228.56;340688;29;1515;-82
2022/05/24 00:37:47;;;;;;;360.88;193.98;;;;;;;18.49;65.72;99227.25;340360;29;1454;-81
2022/05/24 00:37:58;;;;;;;359.45;192.93;;;;;;;18.49;65.25;99224.59;336812;29;1412;-81
2022/05/24 00:38:12;;;;;;;359.13;193.43;;;;;;;18.47;65.28;99229.19;340795;29;806;-81
2022/05/24 00:38:26;;;;;;;354.58;190.77;;;;;;;18.53;65.34;99228.69;341090;29;1504;-81
2022/05/24 00:38:37;;;;;;;353.05;184.38;;;;;;;18.46;65.09;99227.50;340467;29;1540;-81
2022/05/24 00:38:47;;;;;;;355.17;186.03;;;;;;;18.36;65.35;99234.47;339924;29;1300;-81
2022/05/24 00:38:57;;;;;;;355.73;187.80;;;;;;;18.30;65.43;99227.84;339230;29;1291;-81
2022/05/24 00:39:08;;;;;;;357.13;193.30;;;;;;;18.21;66.21;99224.13;339008;29;1313;-81
2022/05/24 00:39:18;;;;;;;357.00;192.93;;;;;;;18.24;65.94;99229.19;338285;29;1477;-81
2022/05/24 00:39:29;;;;;;;360.98;193.98;;;;;;;18.25;65.92;99222.91;340710;29;1517;-81
2022/05/24 00:39:39;;;;;;;362.73;193.97;;;;;;;18.26;66.07;99224.59;340508;29;1164;-81
2022/05/24 00:39:49;;;;;;;360.65;191.70;;;;;;;18.23;65.88;99230.13;339141;29;1529;-81
2022/05/24 00:40:00;;;;;;;360.93;191.50;;;;;;;18.20;66.00;99226.88;336746;29;1276;-81
2022/05/24 00:40:17;;;;;;;361.33;192.57;;;;;;;18.17;65.81;99229.81;339980;29;1420;-81
2022/05/24 00:40:45;;;;;;;359.15;190.27;;;;;;;18.10;66.09;99224.13;339117;29;1494;-81
2022/05/24 00:41:26;;;;;;;349.33;188.50;;;;;;;18.04;66.65;99227.25;340500;29;1295;-81
2022/05/24 00:41:40;;;;;;;346.77;184.07;;;;;;;18.05;66.48;99236.91;339082;29;1446;-81
2022/05/24 00:41:58;;;;;;;352.30;187.68;;;;;;;18.05;66.59;99228.94;337768;29;1478;-81
2022/05/24 00:42:12;;;;;;;357.10;194.27;;;;;;;18.02;66.54;99221.25;339290;29;1261;-81
2022/05/24 00:42:25;;;;;;;362.35;197.85;;;;;;;18.08;66.64;99234.00;339430;29;1561;-81
2022/05/24 00:42:35;;;;;;;364.15;198.75;;;;;;;18.12;66.37;99221.38;339962;29;1458;-81
2022/05/24 00:42:46;;;;;;;361.13;196.93;;;;;;;18.11;66.44;99223.19;338522;29;1494;-81
2022/05/24 00:42:56;;;;;;;359.75;195.77;;;;;;;18.14;66.44;99225.59;337663;29;901;-81
2022/05/24 00:43:42;;;;;;;358.02;196.73;;;;;;;18.24;65.74;99226.53;340195;29;1655;-81
2022/05/24 00:43:56;;;;;;;349.38;185.48;;;;;;;18.23;66.11;99219.53;336333;29;1412;-81
2022/05/24 00:44:17;;;;;;;352.70;189.98;;;;;;;18.26;65.93;99229.06;335525;29;1423;-81
2022/05/24 00:44:34;;;;;;;359.30;192.15;;;;;;;18.26;65.85;99229.91;333628;29;3304;-81
2022/05/24 00:44:48;;;;;;;362.10;192.82;;;;;;;18.24;65.87;99221.22;335766;29;1466;-81
2022/05/24 00:45:05;;;;;;;361.28;193.88;;;;;;;18.29;65.80;99226.16;336289;29;1265;-81
2022/05/24 00:45:39;;;;;;;358.90;193.90;;;;;;;18.32;65.68;99227.72;338283;29;1478;-81
2022/05/24 00:45:50;;;;;;;355.55;193.93;;;;;;;18.31;65.39;99221.59;338248;29;1647;-81
2022/05/24 00:46:07;;;;;;;356.02;193.80;;;;;;;18.32;65.82;99225.09;337681;29;1422;-81
2022/05/24 00:46:23;;;;;;;356.95;191.60;;;;;;;18.35;65.77;99227.50;336138;29;1518;-81
2022/05/24 00:46:51;;;;;;;356.33;191.25;;;;;;;18.36;65.76;99224.72;334851;29;1491;-81
2022/05/24 00:47:04;;;;;;;346.80;187.70;;;;;;;18.39;65.40;99229.78;338975;29;1333;-81
2022/05/24 00:47:25;;;;;;;349.65;187.63;;;;;;;18.41;65.46;99227.84;340349;29;1377;-81
2022/05/24 00:47:54;;;;;;;358.77;193.65;;;;;;;18.39;65.62;99226.28;341177;29;1776;-81
2022/05/24 00:48:15;;;;;;;360.10;191.98;;;;;;;18.43;65.36;99227.72;337632;29;1305;-81
2022/05/24 00:48:37;;;;;;;357.58;192.13;;;;;;;18.45;65.21;99223.16;337685;29;1057;-82
2022/05/24 00:49:09;;;;;;;359.05;191.40;;;;;;;18.26;65.62;99227.25;339044;29;1422;-81
2022/05/24 00:49:53;;;;;;;353.83;190.18;;;;;;;18.27;65.70;99225.44;339439;29;1477;-81
2022/05/24 00:50:13;;;;;;;345.73;188.10;;;;;;;18.28;65.70;99225.31;342052;29;1386;-81
2022/05/24 00:50:28;;;;;;;347.38;187.27;;;;;;;18.31;65.88;99226.03;340286;29;1454;-81
2022/05/24 00:50:40;;;;;;;350.88;186.60;;;;;;;18.33;65.57;99226.78;340613;29;1541;-81
2022/05/24 00:50:51;;;;;;;355.05;187.00;;;;;;;18.35;65.71;99222.19;339398;29;1541;-81
2022/05/24 00:51:02;;;;;;;352.73;185.20;;;;;;;18.34;65.83;99223.16;339268;29;1416;-81
2022/05/24 00:51:12;;;;;;;353.67;187.53;;;;;;;18.33;65.76;99230.25;339289;29;1127;-81
2022/05/24 00:51:47;;;;;;;356.10;188.13;;;;;;;18.30;65.54;99225.19;340989;29;1110;-82
2022/05/24 00:52:08;;;;;;;347.08;180.68;;;;;;;18.21;65.73;99226.75;341794;29;940;-81
2022/05/24 00:52:29;;;;;;;351.05;186.23;;;;;;;18.20;65.54;99222.44;340810;29;1266;-81
2022/05/24 00:52:58;;;;;;;354.73;191.65;;;;;;;18.21;65.76;99225.91;340347;29;1513;-81
2022/05/24 00:53:15;;;;;;;343.82;183.34;;;;;;;18.15;65.90;99224.63;339455;29;1378;-82
2022/05/24 00:53:37;;;;;;;346.80;185.57;;;;;;;18.16;66.19;99217.53;339200;29;1611;-82
2022/05/24 00:53:50;;;;;;;349.63;186.63;;;;;;;18.12;66.01;99224.88;339493;29;1493;-82
2022/05/24 00:54:00;;;;;;;349.77;187.65;;;;;;;18.09;66.18;99229.56;337724;29;1449;-82
2022/05/24 00:54:11;;;;;;;351.13;190.60;;;;;;;18.11;65.95;99219.69;338831;29;1540;-82
2022/05/24 00:54:21;;;;;;;351.23;188.95;;;;;;;18.12;66.26;99222.22;339758;28;1362;-82
2022/05/24 00:54:32;;;;;;;356.90;192.30;;;;;;;18.15;65.94;99229.91;338823;29;1309;-82
2022/05/24 00:54:42;;;;;;;359.77;191.02;;;;;;;18.16;65.88;99225.47;339307;29;1501;-81
2022/05/24 00:54:53;;;;;;;361.03;190.57;;;;;;;18.17;65.90;99220.06;340247;29;1441;-81
2022/05/24 00:55:03;;;;;;;355.17;186.17;;;;;;;18.20;65.75;99219.78;337646;29;2107;-82
2022/05/24 00:55:15;;;;;;;355.40;188.73;;;;;;;18.22;65.61;99223.16;343578;28;1351;-82
2022/05/24 00:55:25;;;;;;;352.33;188.82;;;;;;;18.19;65.76;99228.72;341635;29;1682;-82
2022/05/24 00:55:48;;;;;;;351.97;187.87;;;;;;;18.17;65.79;99220.06;338702;29;1486;-82
2022/05/24 00:56:07;;;;;;;364.10;195.20;;;;;;;18.05;66.02;99221.00;338643;29;830;-82
2022/05/24 00:56:19;;;;;;;360.95;191.40;;;;;;;18.01;66.02;99219.56;342244;29;1242;-82
2022/05/24 00:57:03;;;;;;;351.48;186.57;;;;;;;17.99;66.22;99215.34;340192;29;1411;-82
2022/05/24 00:58:07;;;;;;;350.75;193.65;;;;;;;18.03;66.56;99217.63;341721;29;1405;-81
2022/05/24 00:58:39;;;;;;;348.52;186.88;;;;;;;18.18;66.09;99213.78;331601;29;1042;-82
2022/05/24 00:58:55;;;;;;;352.38;186.63;;;;;;;18.16;65.90;99217.53;333095;29;1330;-81
2022/05/24 00:59:06;;;;;;;352.13;188.95;;;;;;;18.16;66.21;99212.22;332563;29;1182;-82
2022/05/24 00:59:29;;;;;;;354.55;189.68;;;;;;;18.14;66.19;99219.44;330922;29;1340;-82
2022/05/24 00:59:52;;;;;;;350.95;187.52;;;;;;;18.06;66.47;99220.03;333149;29;1335;-82
2022/05/24 01:00:10;;;;;;;349.75;187.30;;;;;;;18.09;66.53;99217.16;340342;29;1428;-82